createdAt,value
2023-02-18T00:00:29.210Z,3.15
2023-02-18T00:02:58.292Z,2.45
2023-02-18T00:05:25.463Z,3.23
2023-02-18T00:07:52.320Z,4.50
2023-02-18T00:10:19.273Z,2.53
2023-02-18T00:12:46.030Z,2.25
2023-02-18T00:15:13.128Z,2.58
2023-02-18T00:17:39.919Z,2.47
2023-02-18T00:20:08.233Z,2.78
2023-02-18T00:22:35.532Z,3.58
2023-02-18T00:25:02.424Z,2.25
2023-02-18T00:27:29.070Z,2.33
2023-02-18T00:29:55.640Z,2.70
2023-02-18T00:32:22.567Z,2.40
2023-02-18T00:34:49.551Z,2.58
2023-02-18T00:37:16.463Z,2.70
2023-02-18T00:39:44.238Z,2.28
2023-02-18T00:42:10.700Z,2.40
2023-02-18T00:44:37.099Z,3.10
2023-02-18T00:47:03.756Z,2.45
2023-02-18T00:49:30.434Z,2.60
2023-02-18T00:51:57.137Z,2.47
2023-02-18T00:54:23.953Z,2.40
2023-02-18T00:56:52.651Z,2.22
2023-02-18T00:59:19.058Z,3.03
2023-02-18T01:01:45.496Z,2.28
2023-02-18T01:04:12.242Z,2.47
2023-02-18T01:06:39.542Z,3.07
2023-02-18T01:09:06.489Z,3.00
2023-02-18T01:11:33.233Z,2.80
2023-02-18T01:13:59.890Z,2.55
2023-02-18T01:16:26.899Z,2.35
2023-02-18T01:18:53.614Z,3.33
2023-02-18T01:21:20.557Z,3.72
2023-02-18T01:23:47.095Z,2.30
2023-02-18T01:26:13.537Z,2.47
2023-02-18T01:28:41.657Z,2.42
2023-02-18T01:31:10.757Z,2.40
2023-02-18T01:33:38.262Z,3.22
2023-02-18T01:36:05.493Z,2.63
2023-02-18T01:38:32.289Z,2.10
2023-02-18T01:40:59.182Z,2.53
2023-02-18T01:43:25.616Z,2.40
2023-02-18T01:45:57.934Z,5.53
2023-02-18T01:48:38.024Z,4.03
2023-02-18T01:51:19.247Z,3.35
2023-02-18T01:54:11.476Z,2.53
2023-02-18T01:56:56.421Z,2.77
2023-02-18T01:59:34.662Z,5.25
2023-02-18T02:02:01.241Z,4.25
2023-02-18T02:04:27.727Z,3.03
2023-02-18T02:06:54.702Z,3.92
2023-02-18T02:09:24.374Z,3.40
2023-02-18T02:12:06.021Z,3.17
2023-02-18T02:14:50.708Z,3.30
2023-02-18T02:17:30.460Z,4.20
2023-02-18T02:20:36.872Z,2.42
2023-02-18T02:23:33.627Z,2.53
2023-02-18T02:26:41.770Z,2.42
2023-02-18T02:29:42.340Z,2.80
2023-02-18T02:32:27.021Z,3.08
2023-02-18T02:35:16.636Z,2.85
2023-02-18T02:38:05.058Z,3.37
2023-02-18T02:40:54.766Z,3.55
2023-02-18T02:43:33.880Z,2.30
2023-02-18T02:46:03.244Z,2.58
2023-02-18T02:48:38.166Z,3.53
2023-02-18T02:51:12.815Z,2.83
2023-02-18T02:53:42.402Z,3.92
2023-02-18T02:56:24.438Z,3.17
2023-02-18T02:59:01.107Z,2.90
2023-02-18T03:02:10.168Z,3.75
2023-02-18T03:04:53.006Z,2.57
2023-02-18T03:07:28.606Z,2.10
2023-02-18T03:10:23.564Z,2.50
2023-02-18T03:13:05.390Z,3.28
2023-02-18T03:15:55.206Z,2.90
2023-02-18T03:18:33.792Z,2.20
2023-02-18T03:21:08.614Z,3.05
2023-02-18T03:23:40.046Z,2.17
2023-02-18T03:26:09.184Z,1.95
2023-02-18T03:28:37.056Z,1.98
2023-02-18T03:31:10.793Z,3.10
2023-02-18T03:33:54.157Z,2.50
2023-02-18T03:36:21.848Z,2.30
2023-02-18T03:38:56.259Z,2.00
2023-02-18T03:41:22.730Z,2.97
2023-02-18T03:43:53.336Z,2.00
2023-02-18T03:46:19.927Z,2.97
2023-02-18T03:48:46.487Z,2.08
2023-02-18T03:51:13.330Z,2.10
2023-02-18T03:53:39.759Z,2.17
2023-02-18T03:56:06.735Z,3.10
2023-02-18T03:58:33.615Z,4.90
2023-02-18T04:01:00.009Z,2.47
2023-02-18T04:03:26.476Z,3.03
2023-02-18T04:05:52.983Z,2.13
2023-02-18T04:08:19.508Z,2.10
2023-02-18T04:10:45.943Z,3.30
2023-02-18T04:13:13.173Z,3.30
2023-02-18T04:15:39.583Z,3.58
2023-02-18T04:18:06.042Z,2.65
2023-02-18T04:20:32.484Z,2.10
2023-02-18T04:22:58.930Z,2.20
2023-02-18T04:25:25.314Z,3.00
2023-02-18T04:27:51.735Z,2.33
2023-02-18T04:30:19.122Z,1.90
2023-02-18T04:32:45.776Z,2.00
2023-02-18T04:35:12.226Z,1.98
2023-02-18T04:37:38.831Z,2.47
2023-02-18T04:40:05.973Z,5.13
2023-02-18T04:42:32.444Z,2.08
2023-02-18T04:44:58.832Z,2.10
2023-02-18T04:47:25.728Z,2.42
2023-02-18T04:49:52.177Z,2.88
2023-02-18T04:52:18.798Z,2.60
2023-02-18T04:54:45.844Z,2.53
2023-02-18T04:57:12.329Z,3.30
2023-02-18T04:59:39.294Z,2.13
2023-02-18T05:02:05.960Z,2.08
2023-02-18T05:04:32.445Z,1.95
2023-02-18T05:06:58.914Z,2.42
2023-02-18T05:09:25.536Z,2.10
2023-02-18T05:11:52.635Z,2.60
2023-02-18T05:14:19.147Z,2.08
2023-02-18T05:16:45.688Z,3.33
2023-02-18T05:19:16.067Z,3.33
2023-02-18T05:21:42.992Z,2.90
2023-02-18T05:24:09.878Z,2.10
2023-02-18T05:26:36.331Z,2.50
2023-02-18T05:29:02.744Z,2.13
2023-02-18T05:31:29.373Z,2.20
2023-02-18T05:33:55.846Z,3.30
2023-02-18T05:36:22.208Z,2.65
2023-02-18T05:38:48.624Z,2.00
2023-02-18T05:41:15.005Z,2.13
2023-02-18T05:44:00.180Z,2.30
2023-02-18T05:46:26.731Z,1.90
2023-02-18T05:48:53.249Z,2.00
2023-02-18T05:51:19.679Z,2.42
2023-02-18T05:53:46.149Z,2.30
2023-02-18T05:56:12.686Z,2.17
2023-02-18T05:58:39.056Z,2.07
2023-02-18T06:01:05.474Z,1.98
2023-02-18T06:03:31.942Z,2.20
2023-02-18T06:05:58.477Z,2.92
2023-02-18T06:08:24.935Z,2.10
2023-02-18T06:10:51.418Z,2.87
2023-02-18T06:13:17.951Z,2.30
2023-02-18T06:15:44.494Z,2.38
2023-02-18T06:18:10.881Z,3.25
2023-02-18T06:20:38.657Z,2.33
2023-02-18T06:23:06.144Z,2.33
2023-02-18T06:25:33.878Z,2.80
2023-02-18T06:28:00.427Z,2.05
2023-02-18T06:30:26.895Z,2.40
2023-02-18T06:32:53.359Z,2.30
2023-02-18T06:35:19.753Z,2.40
2023-02-18T06:37:46.488Z,2.33
2023-02-18T06:40:13.307Z,2.80
2023-02-18T06:42:39.981Z,2.47
2023-02-18T06:45:09.233Z,2.30
2023-02-18T06:47:35.618Z,2.70
2023-02-18T06:50:02.240Z,3.63
2023-02-18T06:52:30.545Z,2.30
2023-02-18T06:54:56.952Z,2.20
2023-02-18T06:57:23.409Z,2.20
2023-02-18T06:59:49.816Z,2.00
2023-02-18T07:02:16.446Z,2.25
2023-02-18T07:04:45.606Z,2.30
2023-02-18T07:07:12.088Z,1.90
2023-02-18T07:09:38.520Z,2.20
2023-02-18T07:12:05.083Z,1.87
2023-02-18T07:14:31.496Z,2.00
2023-02-18T07:16:58.208Z,2.20
2023-02-18T07:19:24.729Z,2.60
2023-02-18T07:21:51.251Z,2.20
2023-02-18T07:24:17.746Z,2.00
2023-02-18T07:26:44.162Z,1.95
2023-02-18T07:29:10.642Z,2.95
2023-02-18T07:31:38.685Z,2.35
2023-02-18T07:34:05.250Z,2.50
2023-02-18T07:36:31.767Z,2.80
2023-02-18T07:38:58.165Z,2.25
2023-02-18T07:41:25.398Z,2.38
2023-02-18T07:43:51.779Z,2.38
2023-02-18T07:46:18.404Z,2.83
2023-02-18T07:48:44.917Z,2.93
2023-02-18T07:51:13.356Z,5.50
2023-02-18T07:53:40.365Z,8.07
2023-02-18T07:56:07.494Z,3.17
2023-02-18T07:58:36.730Z,3.50
2023-02-18T08:01:14.786Z,3.00
2023-02-18T08:03:41.536Z,2.28
2023-02-18T08:06:09.059Z,2.00
2023-02-18T08:08:37.080Z,2.17
2023-02-18T08:11:18.105Z,2.25
2023-02-18T08:13:47.080Z,2.73
2023-02-18T08:16:13.989Z,2.38
2023-02-18T08:18:40.546Z,2.20
2023-02-18T08:21:07.011Z,2.58
2023-02-18T08:23:33.630Z,2.78
2023-02-18T08:26:00.059Z,2.37
2023-02-18T08:28:27.356Z,3.13
2023-02-18T08:30:54.628Z,2.60
2023-02-18T08:33:22.538Z,2.67
2023-02-18T08:35:50.893Z,2.75
2023-02-18T08:38:17.387Z,2.40
2023-02-18T08:40:44.046Z,2.80
2023-02-18T08:43:10.884Z,2.30
2023-02-18T08:45:38.576Z,2.83
2023-02-18T08:48:16.645Z,2.67
2023-02-18T08:50:46.851Z,3.63
2023-02-18T08:53:13.523Z,5.07
2023-02-18T08:55:40.966Z,3.72
2023-02-18T08:58:07.675Z,3.05
2023-02-18T09:00:35.043Z,8.27
2023-02-18T09:03:01.752Z,2.57
2023-02-18T09:05:28.354Z,2.60
2023-02-18T09:07:54.925Z,3.47
2023-02-18T09:10:21.637Z,2.50
2023-02-18T09:12:48.250Z,3.25
2023-02-18T09:15:14.826Z,2.50
2023-02-18T09:17:41.576Z,5.25
2023-02-18T09:20:08.535Z,3.00
2023-02-18T09:22:35.043Z,2.20
2023-02-18T09:25:01.534Z,2.83
2023-02-18T09:27:27.923Z,2.70
2023-02-18T09:29:54.389Z,2.88
2023-02-18T09:32:33.578Z,2.65
2023-02-18T09:35:01.661Z,2.92
2023-02-18T09:37:28.844Z,2.13
2023-02-18T09:39:55.357Z,3.03
2023-02-18T09:42:28.134Z,2.80
2023-02-18T09:44:57.937Z,2.63
2023-02-18T09:47:35.832Z,2.75
2023-02-18T09:50:25.849Z,2.30
2023-02-18T09:52:52.707Z,2.93
2023-02-18T09:55:30.904Z,2.08
2023-02-18T09:58:02.652Z,2.17
2023-02-18T10:00:44.243Z,2.47
2023-02-18T10:03:23.307Z,2.53
2023-02-18T10:06:04.035Z,4.30
2023-02-18T10:08:42.500Z,3.15
2023-02-18T10:11:28.629Z,2.28
2023-02-18T10:13:56.068Z,2.22
2023-02-18T10:16:24.098Z,2.17
2023-02-18T10:18:55.552Z,3.20
2023-02-18T10:21:27.473Z,2.22
2023-02-18T10:24:02.235Z,2.63
2023-02-18T10:26:31.655Z,2.30
2023-02-18T10:28:58.600Z,2.05
2023-02-18T10:31:37.861Z,2.10
2023-02-18T10:34:23.719Z,2.58
2023-02-18T10:36:57.086Z,4.05
2023-02-18T10:39:49.898Z,3.95
2023-02-18T10:42:25.955Z,6.35
2023-02-18T10:45:07.718Z,2.67
2023-02-18T10:48:11.444Z,5.10
2023-02-18T10:50:46.186Z,5.35
2023-02-18T10:53:37.455Z,2.88
2023-02-18T10:56:09.346Z,3.55
2023-02-18T10:58:47.446Z,2.23
2023-02-18T11:01:23.605Z,3.55
2023-02-18T11:03:52.971Z,3.40
2023-02-18T11:06:32.692Z,2.47
2023-02-18T11:09:00.019Z,2.95
2023-02-18T11:11:37.227Z,2.33
2023-02-18T11:14:08.060Z,4.13
2023-02-18T11:16:45.931Z,4.65
2023-02-18T11:19:39.743Z,3.67
2023-02-18T11:22:09.851Z,3.00
2023-02-18T11:24:39.696Z,2.00
2023-02-18T11:27:23.936Z,4.55
2023-02-18T11:29:59.614Z,2.08
2023-02-18T11:32:31.697Z,2.70
2023-02-18T11:34:58.186Z,3.88
2023-02-18T11:37:25.050Z,3.00
2023-02-18T11:39:54.593Z,2.90
2023-02-18T11:42:24.626Z,4.13
2023-02-18T11:44:56.926Z,6.05
2023-02-18T11:47:35.030Z,3.30
2023-02-18T11:50:10.710Z,3.73
2023-02-18T11:52:45.799Z,3.45
2023-02-18T11:55:24.950Z,3.17
2023-02-18T11:57:57.071Z,3.40
2023-02-18T12:00:41.918Z,4.85
2023-02-18T12:03:18.802Z,2.80
2023-02-18T12:05:45.784Z,6.10
2023-02-18T12:08:28.381Z,3.83
2023-02-18T12:11:03.960Z,3.50
2023-02-18T12:13:52.595Z,4.90
2023-02-18T12:16:46.541Z,3.50
2023-02-18T12:19:31.475Z,3.35
2023-02-18T12:22:09.877Z,3.60
2023-02-18T12:24:52.731Z,5.20
2023-02-18T12:27:29.487Z,7.93
2023-02-18T12:30:21.633Z,3.93
2023-02-18T12:33:12.869Z,4.90
2023-02-18T12:35:57.866Z,4.40
2023-02-18T12:38:55.781Z,4.68
2023-02-18T12:42:04.311Z,6.00
2023-02-18T12:44:55.540Z,4.07
2023-02-18T12:48:00.339Z,3.88
2023-02-18T12:50:35.138Z,6.32
2023-02-18T12:53:29.776Z,5.15
2023-02-18T12:56:18.923Z,3.95
2023-02-18T12:59:15.869Z,5.47
2023-02-18T13:02:18.274Z,5.28
2023-02-18T13:05:04.749Z,5.75
2023-02-18T13:07:37.490Z,3.83
2023-02-18T13:10:38.362Z,7.32
2023-02-18T13:13:27.509Z,3.33
2023-02-18T13:16:01.480Z,3.92
2023-02-18T13:18:38.939Z,4.15
2023-02-18T13:21:09.136Z,4.50
2023-02-18T13:23:53.216Z,4.43
2023-02-18T13:26:22.002Z,3.70
2023-02-18T13:29:07.752Z,4.80
2023-02-18T13:31:46.403Z,4.47
2023-02-18T13:34:32.696Z,5.10
2023-02-18T13:37:29.212Z,3.88
2023-02-18T13:39:58.971Z,3.37
2023-02-18T13:42:31.179Z,3.58
2023-02-18T13:44:57.673Z,3.50
2023-02-18T13:47:42.274Z,4.70
2023-02-18T13:50:42.060Z,5.18
2023-02-18T13:53:08.426Z,2.90
2023-02-18T13:56:04.076Z,5.03
2023-02-18T13:58:36.808Z,5.28
2023-02-18T14:01:12.968Z,8.73
2023-02-18T14:03:42.449Z,4.93
2023-02-18T14:06:33.508Z,3.70
2023-02-18T14:09:25.362Z,4.25
2023-02-18T14:12:33.243Z,4.10
2023-02-18T14:17:32.289Z,4.78
2023-02-18T14:20:01.801Z,3.33
2023-02-18T14:22:30.967Z,2.65
2023-02-18T14:25:08.432Z,3.67
2023-02-18T14:27:36.368Z,3.35
2023-02-18T14:30:07.221Z,2.70
2023-02-18T14:32:34.528Z,3.13
2023-02-18T14:35:40.399Z,3.35
2023-02-18T14:38:20.685Z,3.40
2023-02-18T14:41:19.277Z,4.15
2023-02-18T14:43:57.746Z,2.88
2023-02-18T14:46:24.155Z,3.17
2023-02-18T14:49:08.969Z,4.18
2023-02-18T14:51:36.058Z,3.30
2023-02-18T14:54:06.335Z,3.78
2023-02-18T14:56:38.690Z,3.92
2023-02-18T14:59:06.195Z,2.60
2023-02-18T15:01:35.417Z,4.25
2023-02-18T15:04:03.088Z,7.28
2023-02-18T15:06:33.920Z,9.52
2023-02-18T15:09:02.222Z,3.25
2023-02-18T15:11:39.228Z,3.20
2023-02-18T15:14:27.723Z,3.17
2023-02-18T15:16:54.404Z,2.47
2023-02-18T15:19:24.774Z,4.00
2023-02-18T15:21:54.015Z,3.75
2023-02-18T15:24:37.759Z,3.20
2023-02-18T15:27:19.820Z,3.33
2023-02-18T15:29:56.898Z,4.18
2023-02-18T15:32:28.805Z,2.97
2023-02-18T15:35:04.549Z,4.07
2023-02-18T15:37:31.172Z,2.63
2023-02-18T15:39:57.774Z,2.42
2023-02-18T15:42:33.017Z,3.65
2023-02-18T15:45:04.202Z,4.55
2023-02-18T15:47:31.859Z,3.08
2023-02-18T15:50:01.670Z,3.97
2023-02-18T15:52:33.974Z,4.25
2023-02-18T15:55:11.929Z,4.43
2023-02-18T15:57:39.750Z,2.55
2023-02-18T16:00:16.184Z,2.50
2023-02-18T16:03:21.394Z,3.97
2023-02-18T16:05:48.494Z,2.25
2023-02-18T16:08:28.314Z,4.32
2023-02-18T16:11:05.002Z,2.97
2023-02-18T16:13:32.476Z,12.23
2023-02-18T16:16:01.320Z,9.53
2023-02-18T16:21:09.578Z,5.20
2023-02-18T16:24:01.022Z,3.65
2023-02-18T16:26:39.665Z,4.65
2023-02-18T16:29:25.507Z,5.60
2023-02-18T16:31:52.466Z,3.60
2023-02-18T16:34:19.446Z,3.30
2023-02-18T16:37:04.676Z,4.32
2023-02-18T16:39:35.058Z,3.50
2023-02-18T16:42:01.726Z,2.70
2023-02-18T16:44:28.211Z,3.30
2023-02-18T16:46:54.735Z,3.35
2023-02-18T16:49:21.271Z,2.97
2023-02-18T16:51:48.813Z,2.60
2023-02-18T16:54:16.024Z,4.17
2023-02-18T16:56:42.594Z,3.72
2023-02-18T16:59:09.063Z,14.18
2023-02-18T17:01:44.053Z,9.60
2023-02-18T17:04:13.406Z,8.45
2023-02-18T17:06:40.048Z,7.07
2023-02-18T17:09:17.048Z,2.80
2023-02-18T17:11:46.319Z,4.43
2023-02-18T17:14:18.005Z,6.95
2023-02-18T17:16:46.021Z,5.85
2023-02-18T17:19:12.604Z,4.93
2023-02-18T17:21:39.484Z,6.28
2023-02-18T17:24:05.943Z,4.72
2023-02-18T17:26:32.455Z,2.70
2023-02-18T17:29:03.565Z,4.05
2023-02-18T17:31:33.864Z,6.53
2023-02-18T17:34:04.628Z,3.75
2023-02-18T17:36:31.026Z,11.63
2023-02-18T17:38:58.645Z,5.20
2023-02-18T17:41:25.526Z,3.30
2023-02-18T17:43:52.276Z,4.43
2023-02-18T17:46:19.808Z,6.57
2023-02-18T17:48:47.325Z,5.38
2023-02-18T17:51:26.139Z,2.97
2023-02-18T17:53:53.446Z,6.03
2023-02-18T17:56:19.896Z,4.67
2023-02-18T17:58:47.070Z,5.40
2023-02-18T18:01:13.640Z,3.78
2023-02-18T18:03:40.376Z,4.70
2023-02-18T18:06:17.048Z,4.05
2023-02-18T18:08:43.528Z,2.80
2023-02-18T18:11:16.280Z,5.00
2023-02-18T18:13:42.840Z,5.65
2023-02-18T18:16:14.296Z,7.05
2023-02-18T18:18:41.005Z,5.97
2023-02-18T18:21:31.722Z,8.30
2023-02-18T18:23:58.633Z,5.28
2023-02-18T18:26:25.122Z,5.65
2023-02-18T18:28:51.647Z,5.00
2023-02-18T18:31:19.952Z,4.80
2023-02-18T18:33:49.000Z,3.83
2023-02-18T18:36:17.129Z,4.18
2023-02-18T18:38:43.551Z,7.07
2023-02-18T18:41:14.651Z,6.63
2023-02-18T18:43:41.198Z,8.68
2023-02-18T18:46:07.765Z,8.87
2023-02-18T18:48:34.320Z,5.72
2023-02-18T18:51:02.191Z,5.63
2023-02-18T18:53:34.377Z,6.93
2023-02-18T18:56:03.886Z,8.77
2023-02-18T18:58:30.652Z,6.67
2023-02-18T19:01:00.419Z,4.40
2023-02-18T19:03:28.767Z,5.20
2023-02-18T19:05:55.956Z,4.63
2023-02-18T19:08:22.825Z,5.63
2023-02-18T19:10:52.801Z,6.10
2023-02-18T19:13:21.978Z,6.57
2023-02-18T19:15:50.538Z,8.80
2023-02-18T19:18:21.025Z,6.95
2023-02-18T19:20:48.021Z,4.95
2023-02-18T19:23:15.179Z,4.93
2023-02-18T19:25:41.852Z,5.72
2023-02-18T19:28:10.363Z,5.35
2023-02-18T19:30:37.293Z,6.03
2023-02-18T19:33:06.198Z,5.20
2023-02-18T19:35:33.266Z,5.87
2023-02-18T19:38:00.443Z,7.18
2023-02-18T19:40:30.436Z,7.10
2023-02-18T19:42:57.391Z,9.80
2023-02-18T19:45:24.286Z,9.70
2023-02-18T19:47:55.805Z,6.43
2023-02-18T19:50:22.888Z,5.40
2023-02-18T19:52:52.648Z,5.00
2023-02-18T19:55:19.287Z,4.70
2023-02-18T19:57:45.764Z,4.95
2023-02-18T20:00:14.827Z,5.53
2023-02-18T20:02:42.332Z,4.55
2023-02-18T20:05:10.876Z,6.88
2023-02-18T20:07:38.300Z,4.30
2023-02-18T20:10:06.528Z,5.10
2023-02-18T20:12:33.518Z,5.23
2023-02-18T20:14:59.983Z,6.13
2023-02-18T20:17:26.458Z,6.05
2023-02-18T20:19:52.892Z,4.88
2023-02-18T20:22:19.313Z,5.63
2023-02-18T20:24:45.821Z,6.70
2023-02-18T20:27:12.676Z,5.55
2023-02-18T20:29:39.290Z,8.57
2023-02-18T20:32:06.355Z,4.80
2023-02-18T20:34:33.173Z,5.60
2023-02-18T20:37:00.980Z,7.03
2023-02-18T20:39:27.661Z,5.00
2023-02-18T20:41:54.102Z,5.45
2023-02-18T20:44:21.294Z,5.75
2023-02-18T20:46:50.893Z,5.45
2023-02-18T20:49:19.700Z,4.90
2023-02-18T20:51:46.498Z,6.88
2023-02-18T20:54:15.870Z,6.70
2023-02-18T20:56:43.824Z,5.82
2023-02-18T20:59:15.412Z,5.00
2023-02-18T21:01:43.198Z,6.00
2023-02-18T21:04:14.886Z,6.20
2023-02-18T21:06:41.513Z,5.22
2023-02-18T21:09:08.167Z,5.15
2023-02-18T21:11:34.685Z,7.22
2023-02-18T21:14:01.634Z,6.37
2023-02-18T21:16:29.615Z,5.40
2023-02-18T21:18:56.127Z,5.07
2023-02-18T21:21:25.784Z,6.47
2023-02-18T21:23:53.210Z,5.50
2023-02-18T21:26:23.714Z,4.50
2023-02-18T21:28:53.167Z,7.53
2023-02-18T21:31:28.333Z,5.15
2023-02-18T21:33:55.461Z,6.43
2023-02-18T21:36:22.492Z,5.22
2023-02-18T21:38:53.885Z,4.53
2023-02-18T21:41:21.273Z,7.32
2023-02-18T21:43:48.707Z,9.10
2023-02-18T21:46:41.817Z,5.75
2023-02-18T21:49:12.350Z,6.05
2023-02-18T21:51:57.268Z,5.90
2023-02-18T21:54:31.930Z,5.57
2023-02-18T21:57:00.282Z,5.28
2023-02-18T21:59:29.235Z,4.53
2023-02-18T22:01:57.178Z,4.68
2023-02-18T22:04:25.189Z,5.63
2023-02-18T22:06:51.803Z,4.50
2023-02-18T22:09:18.801Z,5.68
2023-02-18T22:11:45.409Z,5.30
2023-02-18T22:14:13.489Z,4.47
2023-02-18T22:16:40.915Z,4.97
2023-02-18T22:19:08.350Z,5.47
2023-02-18T22:21:34.832Z,4.65
2023-02-18T22:24:01.264Z,4.93
2023-02-18T22:26:27.752Z,6.72
2023-02-18T22:28:56.103Z,5.27
2023-02-18T22:31:23.609Z,6.82
2023-02-18T22:33:52.383Z,5.57
2023-02-18T22:36:20.698Z,4.90
2023-02-18T22:38:48.252Z,6.45
2023-02-18T22:41:16.322Z,5.20
2023-02-18T22:43:43.054Z,5.43
2023-02-18T22:46:18.634Z,5.88
2023-02-18T22:48:45.519Z,5.82
2023-02-18T22:51:15.436Z,5.43
2023-02-18T22:53:43.149Z,6.30
2023-02-18T22:56:15.846Z,5.38
2023-02-18T22:58:43.512Z,7.88
2023-02-18T23:01:24.955Z,5.38
2023-02-18T23:03:53.014Z,6.00
2023-02-18T23:06:20.566Z,5.67
2023-02-18T23:08:47.310Z,6.90
2023-02-18T23:11:17.406Z,5.80
2023-02-18T23:13:44.393Z,7.05
2023-02-18T23:16:14.871Z,7.30
2023-02-18T23:18:41.850Z,6.20
2023-02-18T23:21:20.774Z,6.07
2023-02-18T23:23:52.591Z,7.68
2023-02-18T23:26:21.816Z,7.15
2023-02-18T23:28:50.203Z,7.50
2023-02-18T23:31:23.481Z,6.17
2023-02-18T23:33:53.692Z,7.78
2023-02-18T23:36:23.084Z,6.60
2023-02-18T23:38:51.308Z,9.13
2023-02-18T23:41:18.717Z,6.75
2023-02-18T23:43:46.106Z,6.40
2023-02-18T23:46:14.116Z,4.95
2023-02-18T23:48:40.726Z,6.65
2023-02-18T23:51:09.931Z,4.90
2023-02-18T23:53:37.884Z,5.80
2023-02-18T23:56:09.296Z,5.20
2023-02-18T23:58:35.857Z,4.70
